NZWN/WLG METAR and TAF weather

Enter ICAO airport designator
Station Type Date Time Source
NZWN METAR 2018/12/16 00:00 UTC NOAA

NZWN 160000Z AUTO 18013KT 9999 NCD 18/13 Q1026 NOSIG


Station Type Date Time Source
NZWN Decoded METAR 2018/12/16 00:00 UTC NOAA

Wellington Airport, New Zealand (NZWN) 41-20S 174-48E 8M
Dec 15, 2018 - 07:00 PM EST / 2018.12.16 0000 UTC
Wind: from the S (180 degrees) at 15 MPH (13 KT):0
Visibility: greater than 7 mile(s):0
Temperature: 64 F (18 C)
Dew Point: 55 F (13 C)
Relative Humidity: 72%
Pressure (altimeter): 30.30 in. Hg (1026 hPa)
ob: NZWN 160000Z AUTO 18013KT 9999 NCD 18/13 Q1026 NOSIG
cycle: 0

Station Type Date Time Source
NZWN TAF 2018/12/15 18:03 UTC NOAA

TAF NZWN 151701Z 1518/1618 18010KT 9999 BKN020
TEMPO 1518/1520 BKN014
BECMG 1609/1611 02005KT


Example: see airport list